createdAt,value
2022-12-09T00:00:54.090Z,43.43
2022-12-09T00:03:23.904Z,36.00
2022-12-09T00:05:50.976Z,28.40
2022-12-09T00:08:17.703Z,38.50
2022-12-09T00:10:45.457Z,28.67
2022-12-09T00:13:12.251Z,24.80
2022-12-09T00:15:42.736Z,31.43
2022-12-09T00:18:10.160Z,27.83
2022-12-09T00:20:36.821Z,29.50
2022-12-09T00:23:03.542Z,27.30
2022-12-09T00:25:30.254Z,45.20
2022-12-09T00:27:57.638Z,28.20
2022-12-09T00:30:24.439Z,20.70
2022-12-09T00:32:51.275Z,24.93
2022-12-09T00:35:17.971Z,24.90
2022-12-09T00:37:44.813Z,25.23
2022-12-09T00:40:12.222Z,27.27
2022-12-09T00:42:38.897Z,24.40
2022-12-09T00:45:07.765Z,21.50
2022-12-09T00:47:34.916Z,23.70
2022-12-09T00:50:01.830Z,26.83
2022-12-09T00:52:28.825Z,31.60
2022-12-09T00:54:55.529Z,23.40
2022-12-09T00:57:22.270Z,25.50
2022-12-09T00:59:48.873Z,28.00
2022-12-09T01:02:15.724Z,19.77
2022-12-09T01:04:42.617Z,24.17
2022-12-09T01:07:10.907Z,29.60
2022-12-09T01:09:37.795Z,26.83
2022-12-09T01:12:04.816Z,29.43
2022-12-09T01:14:31.571Z,31.83
2022-12-09T01:16:58.267Z,30.77
2022-12-09T01:19:24.951Z,26.43
2022-12-09T01:21:55.494Z,24.20
2022-12-09T01:24:22.879Z,23.80
2022-12-09T01:26:49.633Z,23.57
2022-12-09T01:29:16.351Z,24.17
2022-12-09T01:31:43.123Z,22.70
2022-12-09T01:34:10.257Z,26.33
2022-12-09T01:36:37.007Z,22.83
2022-12-09T01:39:03.672Z,29.20
2022-12-09T01:41:30.327Z,29.27
2022-12-09T01:44:12.600Z,29.87
2022-12-09T01:46:40.072Z,32.57
2022-12-09T01:49:09.279Z,22.47
2022-12-09T01:51:36.877Z,33.10
2022-12-09T01:54:03.938Z,29.20
2022-12-09T01:56:34.194Z,45.60
2022-12-09T01:59:07.010Z,31.70
2022-12-09T02:01:34.275Z,39.93
2022-12-09T02:04:01.212Z,43.60
2022-12-09T02:06:28.209Z,31.23
2022-12-09T02:08:55.662Z,41.27
2022-12-09T02:11:34.445Z,35.80
2022-12-09T02:14:18.100Z,32.67
2022-12-09T02:16:58.591Z,29.43
2022-12-09T02:19:52.441Z,37.73
2022-12-09T02:22:25.711Z,35.20
2022-12-09T02:25:07.391Z,33.10
2022-12-09T02:27:39.760Z,41.00
2022-12-09T02:30:17.103Z,37.80
2022-12-09T02:33:13.207Z,38.53
2022-12-09T02:35:55.641Z,39.97
2022-12-09T02:38:32.487Z,40.90
2022-12-09T02:41:04.309Z,32.50
2022-12-09T02:43:35.507Z,50.43
2022-12-09T02:46:05.347Z,39.70
2022-12-09T02:48:36.769Z,41.43
2022-12-09T02:51:07.951Z,34.80
2022-12-09T02:53:36.453Z,41.60
2022-12-09T02:56:05.808Z,42.33
2022-12-09T02:58:32.525Z,32.27
2022-12-09T03:00:59.750Z,33.83
2022-12-09T03:03:29.353Z,30.57
2022-12-09T03:05:56.360Z,26.30
2022-12-09T03:08:38.891Z,29.57
2022-12-09T03:11:09.010Z,37.17
2022-12-09T03:13:56.690Z,32.70
2022-12-09T03:16:35.106Z,42.40
2022-12-09T03:19:22.170Z,36.23
2022-12-09T03:21:51.936Z,35.50
2022-12-09T03:24:24.403Z,34.87
2022-12-09T03:26:52.587Z,42.43
2022-12-09T03:29:23.183Z,44.13
2022-12-09T03:31:51.707Z,30.20
2022-12-09T03:34:22.755Z,35.07
2022-12-09T03:36:52.596Z,33.77
2022-12-09T03:39:25.658Z,32.30
2022-12-09T03:41:56.523Z,34.73
2022-12-09T03:44:52.517Z,42.83
2022-12-09T03:47:19.606Z,34.60
2022-12-09T03:49:46.480Z,42.00
2022-12-09T03:52:26.492Z,33.03
2022-12-09T03:55:01.059Z,31.10
2022-12-09T03:57:29.203Z,35.70
2022-12-09T04:00:01.527Z,33.10
2022-12-09T04:02:29.335Z,36.80
2022-12-09T04:04:56.440Z,36.37
2022-12-09T04:07:23.531Z,31.87
2022-12-09T04:09:50.700Z,30.33
2022-12-09T04:12:17.650Z,37.70
2022-12-09T04:14:44.400Z,32.90
2022-12-09T04:17:12.039Z,30.50
2022-12-09T04:19:38.953Z,26.60
2022-12-09T04:22:05.650Z,34.53
2022-12-09T04:24:32.387Z,32.63
2022-12-09T04:26:59.012Z,29.63
2022-12-09T04:29:26.015Z,31.03
2022-12-09T04:31:52.841Z,33.37
2022-12-09T04:34:19.839Z,35.17
2022-12-09T04:36:47.925Z,27.70
2022-12-09T04:39:14.548Z,24.93
2022-12-09T04:41:41.331Z,39.90
2022-12-09T04:44:07.991Z,30.17
2022-12-09T04:46:34.997Z,34.67
2022-12-09T04:49:01.853Z,30.13
2022-12-09T04:51:31.330Z,36.47
2022-12-09T04:54:02.381Z,33.33
2022-12-09T04:56:29.023Z,38.07
2022-12-09T04:58:55.806Z,31.33
2022-12-09T05:01:30.146Z,26.07
2022-12-09T05:03:57.888Z,30.27
2022-12-09T05:06:25.221Z,31.20
2022-12-09T05:08:52.188Z,39.83
2022-12-09T05:11:20.758Z,28.17
2022-12-09T05:13:47.939Z,26.80
2022-12-09T05:16:17.446Z,35.90
2022-12-09T05:18:46.598Z,33.00
2022-12-09T05:21:16.180Z,28.23
2022-12-09T05:23:43.899Z,27.77
2022-12-09T05:26:13.907Z,32.20
2022-12-09T05:28:41.038Z,36.67
2022-12-09T05:31:12.314Z,30.60
2022-12-09T05:33:39.706Z,33.43
2022-12-09T05:36:10.530Z,31.43
2022-12-09T05:38:37.612Z,39.10
2022-12-09T05:41:04.667Z,34.77
2022-12-09T05:43:32.866Z,30.60
2022-12-09T05:46:01.048Z,32.63
2022-12-09T05:48:27.949Z,32.13
2022-12-09T05:50:58.344Z,32.13
2022-12-09T05:53:25.354Z,32.57
2022-12-09T05:55:52.536Z,33.33
2022-12-09T05:58:20.481Z,28.90
2022-12-09T06:00:48.418Z,35.53
2022-12-09T06:03:16.128Z,36.53
2022-12-09T06:05:43.376Z,35.80
2022-12-09T06:08:10.647Z,37.10
2022-12-09T06:10:41.373Z,33.67
2022-12-09T06:13:08.656Z,36.50
2022-12-09T06:15:36.018Z,30.07
2022-12-09T06:18:03.399Z,37.67
2022-12-09T06:20:30.770Z,31.70
2022-12-09T06:22:57.629Z,33.13
2022-12-09T06:25:24.768Z,32.73
2022-12-09T06:27:52.724Z,31.70
2022-12-09T06:30:19.785Z,30.23
2022-12-09T06:32:46.863Z,32.43
2022-12-09T06:35:14.161Z,30.57
2022-12-09T06:37:41.681Z,36.17
2022-12-09T06:40:09.404Z,28.00
2022-12-09T06:42:36.953Z,31.63
2022-12-09T06:45:04.204Z,35.03
2022-12-09T06:47:31.370Z,39.60
2022-12-09T06:50:06.524Z,28.73
2022-12-09T06:52:34.342Z,23.77
2022-12-09T06:55:01.430Z,31.30
2022-12-09T06:57:28.690Z,34.00
2022-12-09T06:59:55.670Z,27.50
2022-12-09T07:02:22.811Z,30.47
2022-12-09T07:04:57.140Z,27.60
2022-12-09T07:07:24.007Z,23.57
2022-12-09T07:09:51.209Z,31.07
2022-12-09T07:12:18.360Z,30.90
2022-12-09T07:14:45.129Z,32.93
2022-12-09T07:17:20.115Z,31.63
2022-12-09T07:19:47.363Z,25.33
2022-12-09T07:22:14.645Z,29.13
2022-12-09T07:24:41.959Z,39.17
2022-12-09T07:27:15.818Z,32.20
2022-12-09T07:29:45.895Z,24.60
2022-12-09T07:32:12.589Z,37.97
2022-12-09T07:34:39.876Z,27.07
2022-12-09T07:37:06.615Z,27.30
2022-12-09T07:39:33.642Z,27.30
2022-12-09T07:42:00.814Z,25.07
2022-12-09T07:44:28.301Z,20.90
2022-12-09T07:46:55.850Z,25.20
2022-12-09T07:49:23.245Z,22.47
2022-12-09T07:51:50.837Z,20.70
2022-12-09T07:54:19.115Z,29.50
2022-12-09T07:56:46.296Z,24.30
2022-12-09T07:59:15.228Z,29.83
2022-12-09T08:01:42.218Z,24.13
2022-12-09T08:04:09.217Z,29.90
2022-12-09T08:06:36.844Z,27.23
2022-12-09T08:09:07.409Z,24.37
2022-12-09T08:11:35.091Z,28.90
2022-12-09T08:14:11.058Z,30.23
2022-12-09T08:16:40.771Z,32.73
2022-12-09T08:19:08.139Z,32.70
2022-12-09T08:21:35.141Z,35.47
2022-12-09T08:24:05.656Z,36.83
2022-12-09T08:26:34.503Z,34.77
2022-12-09T08:29:01.954Z,39.37
2022-12-09T08:31:29.587Z,40.30
2022-12-09T08:33:56.805Z,36.87
2022-12-09T08:36:27.792Z,34.80
2022-12-09T08:38:58.103Z,39.53
2022-12-09T08:41:38.070Z,34.20
2022-12-09T08:44:10.349Z,46.60
2022-12-09T08:46:39.091Z,39.67
2022-12-09T08:49:07.204Z,37.30
2022-12-09T08:51:35.026Z,39.00
2022-12-09T08:54:02.668Z,38.20
2022-12-09T08:56:30.071Z,47.60
2022-12-09T08:58:57.231Z,32.13
2022-12-09T09:01:26.834Z,34.80
2022-12-09T09:03:53.837Z,41.80
2022-12-09T09:06:21.156Z,32.33
2022-12-09T09:08:48.027Z,30.50
2022-12-09T09:11:18.864Z,35.53
2022-12-09T09:13:47.877Z,28.27
2022-12-09T09:16:17.761Z,27.83
2022-12-09T09:18:45.570Z,27.10
2022-12-09T09:21:15.376Z,36.73
2022-12-09T09:23:43.136Z,32.07
2022-12-09T09:26:15.228Z,28.00
2022-12-09T09:28:43.258Z,25.50
2022-12-09T09:31:16.642Z,32.90
2022-12-09T09:33:44.414Z,27.73
2022-12-09T09:36:14.983Z,23.60
2022-12-09T09:38:41.896Z,24.47
2022-12-09T09:41:33.272Z,26.60
2022-12-09T09:44:01.095Z,29.90
2022-12-09T09:46:38.051Z,26.73
2022-12-09T09:49:08.536Z,29.67
2022-12-09T09:51:35.996Z,28.03
2022-12-09T09:54:08.470Z,26.30
2022-12-09T09:56:43.771Z,23.63
2022-12-09T09:59:19.825Z,33.87
2022-12-09T10:02:12.881Z,27.83
2022-12-09T10:04:46.125Z,22.17
2022-12-09T10:07:40.928Z,25.73
2022-12-09T10:10:17.213Z,25.63
2022-12-09T10:13:02.861Z,30.57
2022-12-09T10:15:41.943Z,25.27
2022-12-09T10:18:19.317Z,23.70
2022-12-09T10:20:46.902Z,31.97
2022-12-09T10:23:15.928Z,26.20
2022-12-09T10:25:52.920Z,25.10
2022-12-09T10:28:30.626Z,37.63
2022-12-09T10:30:58.155Z,21.37
2022-12-09T10:33:30.736Z,22.77
2022-12-09T10:35:57.788Z,23.17
2022-12-09T10:38:26.717Z,25.13
2022-12-09T10:41:44.831Z,27.60
2022-12-09T10:44:26.079Z,26.67
2022-12-09T10:47:00.722Z,26.30
2022-12-09T10:49:28.834Z,29.40
2022-12-09T10:51:57.417Z,24.33
2022-12-09T10:54:37.319Z,31.63
2022-12-09T10:57:25.870Z,28.40
2022-12-09T11:00:02.877Z,27.43
2022-12-09T11:02:32.079Z,21.20
2022-12-09T11:05:23.109Z,21.70
2022-12-09T11:07:52.355Z,31.33
2022-12-09T11:10:23.933Z,22.80
2022-12-09T11:12:56.047Z,24.63
2022-12-09T11:15:29.882Z,23.40
2022-12-09T11:17:56.997Z,28.73
2022-12-09T11:20:27.559Z,36.63
2022-12-09T11:23:02.509Z,20.73
2022-12-09T11:25:36.307Z,26.00
2022-12-09T11:28:34.354Z,18.70
2022-12-09T11:31:32.783Z,22.50
2022-12-09T11:34:04.428Z,20.40
2022-12-09T11:36:36.966Z,20.00
2022-12-09T11:39:15.567Z,26.53
2022-12-09T11:42:06.218Z,26.03
2022-12-09T11:44:36.085Z,21.90
2022-12-09T11:47:06.164Z,16.70
2022-12-09T11:49:36.606Z,18.37
2022-12-09T11:52:22.781Z,17.00
2022-12-09T11:55:11.527Z,21.37
2022-12-09T11:57:44.219Z,24.33
2022-12-09T12:00:18.405Z,19.43
2022-12-09T12:02:58.582Z,16.90
2022-12-09T12:05:47.809Z,18.33
2022-12-09T12:08:14.795Z,19.10
2022-12-09T12:10:45.764Z,17.20
2022-12-09T12:13:39.890Z,27.93
2022-12-09T12:16:37.678Z,18.63
2022-12-09T12:19:29.118Z,19.50
2022-12-09T12:22:24.989Z,20.07
2022-12-09T12:25:03.421Z,18.47
2022-12-09T12:27:46.306Z,20.57
2022-12-09T12:30:19.471Z,23.27
2022-12-09T12:35:54.835Z,33.10
2022-12-09T12:38:43.989Z,22.07
2022-12-09T12:41:16.480Z,19.57
2022-12-09T12:44:19.662Z,23.57
2022-12-09T12:46:57.299Z,19.63
2022-12-09T12:49:47.476Z,23.87
2022-12-09T12:55:26.195Z,20.90
2022-12-09T12:58:03.027Z,23.00
2022-12-09T13:00:44.901Z,23.67
2022-12-09T13:03:26.008Z,20.43
2022-12-09T13:05:55.876Z,18.83
2022-12-09T13:08:22.501Z,28.50
2022-12-09T13:10:53.574Z,18.77
2022-12-09T13:13:32.305Z,25.03
2022-12-09T13:16:24.649Z,21.63
2022-12-09T13:18:51.757Z,23.53
2022-12-09T13:21:19.385Z,28.63
2022-12-09T13:24:13.621Z,22.27
2022-12-09T13:27:11.604Z,21.90
2022-12-09T13:29:50.161Z,22.47
2022-12-09T13:32:35.668Z,23.43
2022-12-09T13:35:10.355Z,26.07
2022-12-09T13:37:36.935Z,23.23
2022-12-09T13:40:31.345Z,22.57
2022-12-09T13:42:57.911Z,25.17
2022-12-09T13:45:30.349Z,24.97
2022-12-09T13:48:00.660Z,20.37
2022-12-09T13:50:55.987Z,20.47
2022-12-09T13:53:45.662Z,21.93
2022-12-09T13:56:26.465Z,19.67
2022-12-09T13:59:11.584Z,26.63
2022-12-09T14:02:03.902Z,19.40
2022-12-09T14:04:34.940Z,25.47
2022-12-09T14:07:10.526Z,22.23
2022-12-09T14:09:48.967Z,21.37
2022-12-09T14:12:44.130Z,21.83
2022-12-09T14:15:26.088Z,19.80
2022-12-09T14:18:01.683Z,20.43
2022-12-09T14:20:35.131Z,23.33
2022-12-09T14:23:07.862Z,29.00
2022-12-09T14:25:34.447Z,20.87
2022-12-09T14:28:10.270Z,16.83
2022-12-09T14:30:53.354Z,33.80
2022-12-09T14:33:32.407Z,24.93
2022-12-09T14:36:19.212Z,20.10
2022-12-09T14:39:23.146Z,22.70
2022-12-09T14:42:09.673Z,19.93
2022-12-09T14:45:01.937Z,21.07
2022-12-09T14:47:31.598Z,21.53
2022-12-09T14:50:12.350Z,20.67
2022-12-09T14:53:00.974Z,19.77
2022-12-09T14:55:29.541Z,21.23
2022-12-09T14:57:59.842Z,23.63
2022-12-09T15:00:30.132Z,23.30
2022-12-09T15:03:30.602Z,21.00
2022-12-09T15:06:02.171Z,19.50
2022-12-09T15:08:40.499Z,16.60
2022-12-09T15:11:16.141Z,24.90
2022-12-09T15:13:46.077Z,22.33
2022-12-09T15:16:15.859Z,17.70
2022-12-09T15:18:44.318Z,16.77
2022-12-09T15:21:20.609Z,19.27
2022-12-09T15:23:47.269Z,19.30
2022-12-09T15:26:28.968Z,20.40
2022-12-09T15:28:59.295Z,22.83
2022-12-09T15:31:28.217Z,18.73
2022-12-09T15:33:57.370Z,18.33
2022-12-09T15:36:44.113Z,21.73
2022-12-09T15:39:22.548Z,18.60
2022-12-09T15:42:07.849Z,17.07
2022-12-09T15:44:53.730Z,20.57
2022-12-09T15:47:43.121Z,20.97
2022-12-09T15:50:23.354Z,22.63
2022-12-09T15:53:13.982Z,17.53
2022-12-09T15:56:07.872Z,22.10
2022-12-09T15:58:42.285Z,27.10
2022-12-09T16:01:09.573Z,28.23
2022-12-09T16:03:36.851Z,23.93
2022-12-09T16:06:07.389Z,22.67
2022-12-09T16:08:39.671Z,19.83
2022-12-09T16:11:06.933Z,27.43
2022-12-09T16:13:33.686Z,21.47
2022-12-09T16:16:02.896Z,26.43
2022-12-09T16:18:35.469Z,21.83
2022-12-09T16:21:24.972Z,27.37
2022-12-09T16:23:53.540Z,20.80
2022-12-09T16:26:32.113Z,25.30
2022-12-09T16:29:01.728Z,23.63
2022-12-09T16:31:29.098Z,20.10
2022-12-09T16:33:56.459Z,21.63
2022-12-09T16:36:30.899Z,24.03
2022-12-09T16:39:09.463Z,25.43
2022-12-09T16:42:19.176Z,22.27
2022-12-09T16:44:45.784Z,23.37
2022-12-09T16:47:18.158Z,32.67
2022-12-09T16:49:47.214Z,25.63
2022-12-09T16:52:24.875Z,22.53
2022-12-09T16:54:51.672Z,25.20
2022-12-09T16:57:20.113Z,22.40
2022-12-09T16:59:47.432Z,28.60
2022-12-09T17:02:32.184Z,24.87
2022-12-09T17:05:00.484Z,25.33
2022-12-09T17:07:27.157Z,25.60
2022-12-09T17:09:53.759Z,29.97
2022-12-09T17:12:20.460Z,29.50
2022-12-09T17:14:47.242Z,25.90
2022-12-09T17:17:14.000Z,25.43
2022-12-09T17:19:42.157Z,22.67
2022-12-09T17:22:09.597Z,26.57
2022-12-09T17:24:36.554Z,24.17
2022-12-09T17:27:03.341Z,31.27
2022-12-09T17:29:29.991Z,22.97
2022-12-09T17:31:56.703Z,23.27
2022-12-09T17:34:23.350Z,28.80
2022-12-09T17:36:49.923Z,28.57
2022-12-09T17:39:16.704Z,22.97
2022-12-09T17:41:43.382Z,22.47
2022-12-09T17:44:10.052Z,26.10
2022-12-09T17:46:36.668Z,26.80
2022-12-09T17:49:03.273Z,28.00
2022-12-09T17:51:35.703Z,27.33
2022-12-09T17:54:03.474Z,31.87
2022-12-09T17:56:30.072Z,27.83
2022-12-09T17:59:03.512Z,26.10
2022-12-09T18:01:31.390Z,27.33
2022-12-09T18:04:04.684Z,29.93
2022-12-09T18:06:36.095Z,29.60
2022-12-09T18:09:04.733Z,27.03
2022-12-09T18:11:31.663Z,26.70
2022-12-09T18:13:58.628Z,26.17
2022-12-09T18:16:25.378Z,29.67
2022-12-09T18:18:52.449Z,25.00
2022-12-09T18:21:19.958Z,28.63
2022-12-09T18:23:48.188Z,35.57
2022-12-09T18:26:18.970Z,39.73
2022-12-09T18:28:45.834Z,24.90
2022-12-09T18:31:19.090Z,24.30
2022-12-09T18:33:46.447Z,28.47
2022-12-09T18:36:15.796Z,25.13
2022-12-09T18:38:43.421Z,32.43
2022-12-09T18:41:18.725Z,28.23
2022-12-09T18:43:47.075Z,29.13
2022-12-09T18:46:25.455Z,26.30
2022-12-09T18:49:04.737Z,30.47
2022-12-09T18:51:32.644Z,25.60
2022-12-09T18:54:00.405Z,24.63
2022-12-09T18:56:28.170Z,29.20
2022-12-09T18:59:11.510Z,22.00
2022-12-09T19:01:41.614Z,29.47
2022-12-09T19:04:22.883Z,27.00
2022-12-09T19:06:51.871Z,28.47
2022-12-09T19:09:21.585Z,25.63
2022-12-09T19:11:49.595Z,24.30
2022-12-09T19:14:18.330Z,27.83
2022-12-09T19:16:45.815Z,24.80
2022-12-09T19:19:14.516Z,29.50
2022-12-09T19:21:41.459Z,27.00
2022-12-09T19:24:13.158Z,22.73
2022-12-09T19:26:41.475Z,28.83
2022-12-09T19:29:08.620Z,72.43
2022-12-09T19:31:38.451Z,31.97
2022-12-09T19:34:07.068Z,36.70
2022-12-09T19:36:34.245Z,23.70
2022-12-09T19:39:02.242Z,27.10
2022-12-09T19:41:28.867Z,25.93
2022-12-09T19:43:56.582Z,25.10
2022-12-09T19:46:24.172Z,27.47
2022-12-09T19:48:50.878Z,37.40
2022-12-09T19:51:19.142Z,24.10
2022-12-09T19:53:48.160Z,24.83
2022-12-09T19:56:19.548Z,31.07
2022-12-09T19:58:47.158Z,28.23
2022-12-09T20:01:18.959Z,28.63
2022-12-09T20:03:48.056Z,35.40
2022-12-09T20:06:16.750Z,34.10
2022-12-09T20:08:44.503Z,32.57
2022-12-09T20:11:23.406Z,32.23
2022-12-09T20:13:51.511Z,29.87
2022-12-09T20:16:21.125Z,29.70
2022-12-09T20:18:48.636Z,32.33
2022-12-09T20:21:17.658Z,25.70
2022-12-09T20:23:44.696Z,32.40
2022-12-09T20:26:14.459Z,33.73
2022-12-09T20:28:42.525Z,37.27
2022-12-09T20:31:15.580Z,31.13
2022-12-09T20:33:42.552Z,27.07
2022-12-09T20:36:19.442Z,36.77
2022-12-09T20:38:54.901Z,32.03
2022-12-09T20:41:23.029Z,35.90
2022-12-09T20:43:51.119Z,36.40
2022-12-09T20:46:27.627Z,35.20
2022-12-09T20:48:55.382Z,40.37
2022-12-09T20:51:23.152Z,42.57
2022-12-09T20:53:50.529Z,40.93
2022-12-09T20:56:18.579Z,42.83
2022-12-09T20:58:46.361Z,45.37
2022-12-09T21:01:18.889Z,41.40
2022-12-09T21:03:47.712Z,46.57
2022-12-09T21:06:15.773Z,49.83
2022-12-09T21:08:43.324Z,49.53
2022-12-09T21:11:15.565Z,51.07
2022-12-09T21:13:44.720Z,51.13
2022-12-09T21:16:16.858Z,51.13
2022-12-09T21:18:43.673Z,57.30
2022-12-09T21:21:10.333Z,52.63
2022-12-09T21:23:38.633Z,60.20
2022-12-09T21:26:07.643Z,51.53
2022-12-09T21:28:35.651Z,51.30
2022-12-09T21:31:14.211Z,53.23
2022-12-09T21:33:42.152Z,56.87
2022-12-09T21:36:15.720Z,50.40
2022-12-09T21:38:42.996Z,40.63
2022-12-09T21:41:14.732Z,49.30
2022-12-09T21:43:41.725Z,43.03
2022-12-09T21:46:18.755Z,46.27
2022-12-09T21:48:51.818Z,45.53
2022-12-09T21:51:20.156Z,43.97
2022-12-09T21:53:47.904Z,42.50
2022-12-09T21:56:17.281Z,39.77
2022-12-09T21:58:45.371Z,45.20
2022-12-09T22:01:19.535Z,44.90
2022-12-09T22:03:47.419Z,38.97
2022-12-09T22:06:15.359Z,40.20
2022-12-09T22:08:42.674Z,48.20
2022-12-09T22:11:11.082Z,45.70
2022-12-09T22:13:39.758Z,41.83
2022-12-09T22:16:11.973Z,48.97
2022-12-09T22:18:39.188Z,46.80
2022-12-09T22:21:28.060Z,38.90
2022-12-09T22:23:57.048Z,46.17
2022-12-09T22:26:24.294Z,43.27
2022-12-09T22:28:51.488Z,48.17
2022-12-09T22:31:21.413Z,48.87
2022-12-09T22:33:49.534Z,61.83
2022-12-09T22:36:16.629Z,51.67
2022-12-09T22:38:43.961Z,46.50
2022-12-09T22:41:13.912Z,48.10
2022-12-09T22:43:41.323Z,56.80
2022-12-09T22:46:11.687Z,46.73
2022-12-09T22:48:39.439Z,47.00
2022-12-09T22:51:10.757Z,52.03
2022-12-09T22:53:37.839Z,47.53
2022-12-09T22:56:05.391Z,49.37
2022-12-09T22:58:33.739Z,50.67
2022-12-09T23:01:00.659Z,47.80
2022-12-09T23:03:27.597Z,46.87
2022-12-09T23:05:54.347Z,56.93
2022-12-09T23:08:21.040Z,45.03
2022-12-09T23:10:47.656Z,52.90
2022-12-09T23:13:14.246Z,48.53
2022-12-09T23:15:40.916Z,46.87
2022-12-09T23:18:07.534Z,54.50
2022-12-09T23:20:34.575Z,61.60
2022-12-09T23:23:01.176Z,51.03
2022-12-09T23:25:27.775Z,58.63
2022-12-09T23:27:54.357Z,50.63
2022-12-09T23:30:20.955Z,64.00
2022-12-09T23:32:47.670Z,51.57
2022-12-09T23:35:14.315Z,57.60
2022-12-09T23:37:40.959Z,55.10
2022-12-09T23:40:08.545Z,59.17
2022-12-09T23:42:35.356Z,52.73
2022-12-09T23:45:01.974Z,55.40
2022-12-09T23:47:28.583Z,49.07
2022-12-09T23:49:55.465Z,54.97
2022-12-09T23:52:22.096Z,58.33
2022-12-09T23:54:48.689Z,58.67
2022-12-09T23:57:15.322Z,55.30
2022-12-09T23:59:41.909Z,53.10
